Date,TemperatureHighF,TemperatureAvgF,TemperatureLowF,DewpointHighF,DewpointAvgF,DewpointLowF,HumidityHigh,HumidityAvg,HumidityLow,PressureMaxIn,PressureMinIn,WindSpeedMaxMPH,WindSpeedAvgMPH,GustSpeedMaxMPH,PrecipitationSumIn
2012-1-1,58,44,30,44,34,24,87,70,46,29.70,29.32,26,3,26,0.00
2012-1-2,44,35,27,29,19,14,66,52,41,29.55,29.45,20,6,20,0.00
2012-1-3,34,25,16,18,12,4,75,59,36,29.84,29.54,18,5,18,0.00
2012-1-4,29,20,9,18,10,1,74,65,58,29.87,29.54,7,0,7,0.00
2012-1-5,63,37,24,32,23,15,76,58,28,29.60,29.50,14,2,14,0.00
2012-1-6,73,51,37,36,29,23,60,44,25,29.51,29.38,9,2,9,0.00
2012-1-7,67,52,41,43,31,23,51,45,33,29.67,29.38,14,2,14,0.00
2012-1-8,62,40,28,34,26,18,72,57,34,29.90,29.66,11,2,11,0.00
2012-1-9,39,29,25,29,22,17,83,75,59,29.91,29.60,6,0,6,0.00
2012-1-10,72,40,25,40,28,20,90,67,30,29.62,29.54,8,1,8,0.00
2012-1-11,42,34,23,39,29,18,90,82,73,29.61,29.15,8,0,8,0.68
2012-1-12,62,48,38,49,42,35,90,80,62,29.15,28.91,10,1,10,0.04
2012-1-13,50,33,26,44,18,10,83,56,36,29.54,28.90,20,6,20,0.11
2012-1-14,48,29,23,23,15,12,63,54,35,29.73,29.54,12,3,12,0.00
2012-1-15,53,29,19,24,14,10,71,56,29,30.13,29.73,10,2,10,0.00
2012-1-16,44,29,15,32,17,8,76,61,44,30.12,29.67,11,2,11,0.00
2012-1-17,64,55,41,46,44,32,83,68,50,29.67,29.24,22,4,26,0.10
2012-1-18,52,37,19,38,20,9,66,52,30,29.76,29.32,22,5,22,0.00
2012-1-19,41,28,15,21,14,8,76,58,41,29.76,29.46,10,2,10,0.00
2012-1-20,37,30,25,26,17,11,84,58,45,29.86,29.53,8,1,11,0.00
2012-1-21,33,30,27,28,26,22,87,83,79,29.87,29.50,7,1,7,0.01
2012-1-22,34,30,27,28,25,22,87,81,74,30.02,29.86,4,0,4,0.01
2012-1-23,51,39,32,44,36,28,91,87,75,29.89,29.40,8,2,8,0.16
2012-1-24,74,46,31,44,36,28,91,70,33,29.80,29.46,10,1,10,0.00
2012-1-25,63,43,30,41,32,24,80,66,43,29.94,29.74,8,1,8,0.00
2012-1-26,45,41,39,38,35,31,87,78,69,29.75,29.27,5,1,5,0.04
2012-1-27,59,47,39,54,38,28,94,73,47,29.59,29.03,22,5,22,0.33
2012-1-28,58,42,32,36,26,10,80,57,33,29.76,29.46,18,4,18,0.00
2012-1-29,53,39,32,31,16,10,73,40,26,29.83,29.59,22,3,22,0.00
2012-1-30,54,38,27,23,18,15,61,46,25,29.95,29.74,10,2,10,0.00
2012-1-31,75,55,38,36,29,22,57,38,19,29.77,29.61,10,2,10,0.00
2012-2-1,69,56,45,50,39,29,76,53,34,29.62,29.56,10,2,10,0.00
2012-2-2,64,49,39,49,37,26,86,65,36,29.91,29.54,16,2,16,0.03
2012-2-3,67,41,29,38,27,21,76,58,32,30.08,29.91,7,1,7,0.00
2012-2-4,44,34,27,33,27,20,84,75,63,29.91,29.68,4,0,4,0.05
2012-2-5,57,36,27,40,30,22,86,78,48,29.80,29.65,6,0,6,0.31
2012-2-6,66,38,25,37,27,20,86,66,32,29.81,29.62,9,1,9,0.00
2012-2-7,72,46,31,39,29,21,77,54,29,29.81,29.64,12,2,13,0.00
2012-2-8,37,33,28,30,27,20,86,78,64,29.82,29.69,3,0,8,0.07
2012-2-9,62,37,26,31,23,17,85,60,30,29.84,29.73,14,2,14,0.08
2012-2-10,46,35,24,29,24,16,82,65,47,29.76,29.47,7,1,7,0.01
2012-2-11,40,35,33,34,30,28,85,83,77,29.48,29.25,10,0,10,0.13
2012-2-12,31,26,24,13,11,10,59,53,43,29.71,29.61,21,7,21,0.00
2012-2-13,58,36,25,25,17,12,60,46,26,29.76,29.63,14,4,14,0.00
2012-2-14,56,41,32,29,25,19,69,54,33,29.65,29.48,6,1,6,0.00
2012-2-15,67,45,35,37,30,24,70,57,32,29.85,29.59,12,2,12,0.00
2012-2-16,48,41,35,42,35,26,87,80,68,29.83,29.56,10,1,10,0.18
2012-2-17,62,46,33,43,32,22,89,62,32,29.70,29.57,15,3,15,0.00
2012-2-18,69,44,25,34,26,19,79,54,22,29.68,29.43,14,2,14,0.00
2012-2-19,50,39,32,30,24,20,65,56,43,29.69,29.48,6,1,6,0.00
2012-2-20,63,39,26,28,22,13,66,52,25,29.89,29.56,7,1,7,0.00
2012-2-21,54,39,21,32,26,13,73,59,41,29.88,29.40,9,2,9,0.00
2012-2-22,63,51,34,40,34,27,78,54,30,29.42,29.05,12,3,12,0.00
2012-2-23,68,53,47,41,37,32,68,55,34,29.22,29.03,9,1,9,0.00
2012-2-24,55,46,42,43,39,38,84,78,59,29.14,29.07,6,1,6,0.25
2012-2-26,58,41,28,26,18,16,60,42,24,29.95,29.92,6,1,6,0.00
2012-2-27,71,48,24,36,26,15,73,46,25,29.93,29.69,14,3,14,0.00
2012-2-28,64,46,33,30,24,20,61,44,25,30.06,29.83,9,2,9,0.00
2012-2-29,49,42,35,47,35,22,93,78,53,29.83,29.21,6,1,6,1.71
2012-3-1,71,56,37,50,38,27,93,55,33,29.55,29.17,20,4,20,0.02
2012-3-2,51,41,29,43,34,23,91,76,61,29.60,29.21,12,2,12,0.34
2012-3-3,64,50,41,45,32,14,91,56,18,29.33,29.09,19,4,19,0.01
2012-3-4,46,39,33,26,22,18,66,53,36,29.47,29.28,12,3,12,0.00
2012-3-5,48,33,26,32,20,16,78,58,42,30.04,29.47,12,2,12,0.01
2012-3-6,54,37,22,27,21,15,77,54,32,30.21,30.03,8,2,8,0.00
2012-3-7,72,50,28,43,31,20,72,51,27,30.07,29.86,10,2,10,0.00
2012-3-8,71,61,48,51,46,37,77,58,46,29.87,29.51,20,4,20,0.04
2012-3-9,62,48,36,46,27,18,75,46,27,29.94,29.58,20,5,20,0.00
2012-3-10,59,40,28,24,18,14,60,43,22,30.13,29.94,8,1,8,0.00
2012-3-11,75,48,25,37,26,15,70,46,22,30.08,29.90,7,1,7,0.00
2012-3-12,78,55,36,41,34,26,71,48,24,29.92,29.68,8,1,8,0.00
2012-3-13,81,69,61,52,47,44,58,46,34,29.64,29.56,9,2,9,0.00
2012-3-14,92,70,54,52,46,40,69,47,23,29.78,29.64,10,2,10,0.00
2012-3-15,89,62,44,53,46,37,78,59,28,29.79,29.67,9,1,9,0.05
2012-3-16,68,58,50,59,52,46,87,78,70,29.75,29.68,4,1,4,0.04
2012-3-17,62,60,58,52,50,49,73,70,69,29.85,29.84,1,0,1,0.00
2012-3-18,76,62,48,59,52,44,86,72,53,29.90,29.74,8,1,8,0.00
2012-3-19,86,64,53,62,55,48,86,73,41,29.76,29.67,6,1,6,0.00
2012-3-20,81,63,51,65,56,48,90,78,53,29.84,29.73,6,1,6,0.01
2012-3-21,70,60,52,61,55,49,90,83,71,29.90,29.81,5,1,5,0.00
2012-3-22,91,69,54,67,58,51,90,72,45,29.84,29.64,6,1,6,0.00
2012-3-23,91,69,53,66,57,49,89,67,35,29.68,29.51,6,1,6,0.00
2012-3-24,64,61,54,60,56,51,89,83,66,29.52,29.43,5,1,5,0.30
2012-3-25,66,56,50,57,51,46,90,84,72,29.45,29.34,6,1,6,0.05
2012-3-26,57,50,39,52,36,14,86,61,27,29.81,29.40,10,2,10,0.00
2012-3-27,67,45,28,27,20,14,59,39,18,29.94,29.71,8,1,8,0.00
2012-3-28,81,61,39,57,42,24,66,51,35,29.72,29.24,17,3,17,0.02
2012-3-29,74,60,42,41,37,29,61,44,28,29.61,29.29,16,3,16,0.00
2012-3-30,63,45,34,46,35,27,79,67,51,29.69,29.36,8,1,8,0.00
2012-3-31,74,54,44,56,45,39,85,73,48,29.47,29.29,8,1,8,0.01
2012-4-1,72,58,47,51,47,42,85,66,45,29.47,29.15,8,2,8,0.18
2012-4-2,74,57,44,52,39,28,88,55,25,29.53,29.15,9,2,9,0.06
2012-4-3,81,56,33,45,33,24,75,45,22,29.62,29.34,7,1,7,0.00
2012-4-4,79,54,48,51,38,27,73,56,26,29.37,29.21,8,1,8,0.00
2012-4-5,70,52,39,37,31,27,68,46,28,29.48,29.34,6,1,6,0.00
2012-4-6,72,51,35,32,26,14,67,41,18,29.68,29.46,9,1,9,0.00
2012-4-7,76,55,34,29,21,14,46,28,15,29.81,29.65,14,2,14,0.00
2012-4-8,76,57,37,40,29,19,51,35,22,29.70,29.43,17,4,17,0.00
2012-4-9,66,55,46,40,32,22,68,42,29,29.52,29.38,20,6,20,0.01
2012-4-10,66,45,37,37,31,22,75,60,23,29.48,29.32,16,1,16,0.00
2012-4-11,58,46,36,37,29,21,68,53,35,29.65,29.47,17,4,17,0.00
2012-4-12,64,46,38,33,29,26,69,53,31,29.76,29.64,8,1,8,0.00
2012-4-13,77,54,35,39,32,27,77,49,22,29.86,29.74,9,1,9,0.00
2012-4-14,77,58,37,45,35,28,74,47,21,29.81,29.62,9,1,9,0.00
2012-4-15,86,68,53,57,51,45,81,58,34,29.66,29.55,8,1,8,0.00
2012-4-16,92,76,62,62,58,51,77,54,34,29.62,29.47,10,2,10,0.00
2012-4-17,77,66,51,55,43,36,61,44,30,29.82,29.58,12,3,12,0.00
2012-4-18,55,52,49,48,44,37,87,74,55,29.85,29.70,3,0,3,0.48
2012-4-19,75,58,48,55,48,42,89,73,41,29.71,29.58,5,1,5,0.00
2012-4-20,75,58,43,56,47,38,88,70,49,29.59,29.37,9,2,9,0.00
2012-4-21,81,62,52,59,52,46,84,73,44,29.40,29.19,18,2,18,0.39
2012-4-22,53,49,42,48,44,38,88,85,80,29.41,29.07,8,1,8,0.88
2012-4-23,47,42,37,40,36,33,89,81,67,29.12,28.96,12,4,12,0.36
2012-4-24,65,50,40,34,28,23,76,45,25,29.32,29.08,13,3,13,0.00
2012-4-25,74,53,34,41,34,28,80,53,24,29.44,29.31,12,2,12,0.00
2012-4-26,73,61,52,59,49,38,82,64,56,29.43,29.16,11,2,11,0.10
2012-4-27,65,54,44,47,34,28,69,50,30,29.78,29.35,14,3,14,0.00
2012-4-28,57,46,37,39,32,25,78,59,37,29.87,29.71,5,1,5,0.07
2012-4-29,76,56,39,46,38,30,86,57,26,29.84,29.68,7,1,7,0.03
2012-4-30,65,54,42,52,41,30,73,62,43,29.89,29.63,10,2,10,0.00
2012-5-1,88,70,58,64,57,51,92,66,39,29.63,29.54,11,2,11,0.10
2012-5-2,84,68,60,68,61,54,87,78,57,29.66,29.56,7,1,7,0.43
2012-5-3,90,71,58,70,62,54,91,76,51,29.76,29.55,8,2,8,0.00
2012-5-9,74,64,57,62,58,53,92,82,63,29.38,29.26,8,1,8,0.09
2012-5-10,70,58,50,53,46,40,87,66,42,29.54,29.23,13,3,13,0.00
2012-5-11,77,59,41,46,40,35,80,53,29,29.77,29.54,13,2,13,0.00
2012-5-12,79,62,44,53,45,38,82,58,31,29.89,29.76,10,1,10,0.00
2012-5-13,80,66,54,63,55,48,84,68,51,29.77,29.65,9,1,9,0.00
2012-5-14,65,62,60,62,59,55,91,87,75,29.68,29.57,7,1,7,0.58
2012-5-15,79,68,62,66,62,57,93,80,61,29.58,29.49,7,1,7,0.13
2012-5-16,86,70,55,65,57,52,91,68,37,29.54,29.43,6,1,6,0.00
2012-5-17,79,64,51,56,47,42,74,56,35,29.72,29.53,6,1,6,0.00
2012-5-18,82,61,43,54,47,37,84,63,34,29.78,29.68,6,1,6,0.00
2012-5-19,88,66,49,60,52,44,84,65,37,29.78,29.68,5,1,5,0.00
2012-5-20,91,69,52,62,55,48,86,65,32,29.78,29.67,7,1,7,0.00
2012-5-21,71,66,62,66,62,54,91,86,75,29.67,29.48,5,1,5,1.09
2012-5-22,80,69,63,71,64,59,91,85,67,29.48,29.37,8,0,8,0.49
2012-5-23,84,68,59,71,62,56,93,83,58,29.55,29.43,5,1,5,0.18
2012-5-24,82,70,62,69,63,59,92,80,57,29.65,29.54,12,2,12,0.00
2012-5-25,88,74,63,73,66,60,91,78,58,29.71,29.64,6,1,6,0.00
2012-5-26,91,76,64,74,68,61,91,77,52,29.73,29.64,7,1,7,0.00
2012-5-27,90,76,66,74,68,62,90,77,54,29.74,29.60,9,1,9,0.27
2012-5-28,94,77,64,76,68,60,90,76,55,29.72,29.47,10,2,10,0.18
2012-5-29,90,76,69,73,68,65,90,77,53,29.51,29.31,10,2,10,0.37
2012-5-30,86,73,62,69,63,58,90,73,51,29.42,29.29,3,1,3,0.00
2012-5-31,88,71,60,61,57,54,83,65,41,29.47,29.33,4,1,4,0.00
2012-6-1,77,67,61,69,61,54,88,81,75,29.47,29.21,6,2,6,0.39
2012-6-2,74,63,53,59,51,47,89,66,46,29.43,29.31,6,2,6,0.00
2012-6-3,81,73,59,56,52,47,79,50,38,29.43,29.30,8,3,8,0.01
2012-6-4,76,65,56,55,52,50,80,64,49,29.36,29.25,6,2,6,0.00
2012-6-5,69,61,56,54,52,50,83,72,57,29.54,29.36,2,1,2,0.01
2012-6-6,78,62,52,56,52,48,86,70,47,29.60,29.53,5,1,5,0.00
2012-6-7,86,66,52,60,54,48,86,67,42,29.62,29.53,4,1,4,0.00
2012-6-8,87,69,52,61,55,47,86,63,40,29.63,29.51,7,1,7,0.00
2012-6-9,95,74,57,61,56,50,80,57,29,29.60,29.53,4,1,4,0.00
2012-6-10,92,74,58,67,60,53,83,63,35,29.69,29.60,4,1,4,0.00
2012-6-11,83,72,62,67,62,57,83,71,52,29.71,29.63,6,2,6,0.00
2012-6-12,84,72,68,74,67,63,91,84,72,29.63,29.39,5,1,5,0.75
2012-6-13,83,70,60,65,58,52,91,68,37,29.67,29.46,5,1,5,0.00
2012-6-14,84,68,54,65,58,49,85,71,53,29.78,29.67,3,1,3,0.00
2012-6-15,84,70,59,63,59,55,87,70,48,29.87,29.78,3,1,3,0.00
2012-6-16,85,68,54,64,57,50,87,69,50,29.91,29.76,4,1,4,0.00
2012-6-17,80,68,55,59,56,50,84,66,48,29.77,29.60,7,2,7,0.00
2012-6-18,69,65,61,63,59,56,89,82,70,29.68,29.59,5,2,5,0.42
2012-6-19,91,75,64,77,68,61,91,80,59,29.73,29.65,5,1,5,0.00
2012-6-20,99,82,68,75,70,64,88,70,42,29.74,29.60,5,1,5,0.00
2012-6-21,99,82,70,78,71,66,88,71,46,29.62,29.45,4,1,4,0.00
2012-6-22,95,78,70,75,69,66,86,74,47,29.47,29.36,5,1,5,0.04
2012-6-23,91,75,64,66,62,59,88,67,38,29.61,29.46,4,1,4,0.00
2012-6-24,88,75,61,70,63,56,85,69,45,29.62,29.48,5,1,5,0.00
2012-6-25,88,74,64,65,59,45,87,63,34,29.47,29.34,10,2,10,0.00
2012-6-26,80,67,55,53,48,43,69,52,37,29.51,29.40,8,2,8,0.00
2012-6-27,91,74,59,59,54,48,68,51,33,29.54,29.45,10,2,10,0.00
2012-6-28,96,79,61,66,59,52,73,53,33,29.51,29.34,5,2,5,0.00
2012-6-29,108,88,72,76,69,63,80,56,33,29.45,29.27,8,2,8,0.01
2012-7-9,85,78,72,71,68,65,85,72,55,29.57,29.51,3,1,3,0.00
2012-7-10,92,77,67,74,67,63,90,73,49,29.64,29.54,3,1,3,0.00
2012-7-11,89,76,66,72,66,63,88,72,46,29.73,29.63,7,1,7,0.00
2012-7-12,88,74,63,68,64,59,88,72,44,29.78,29.73,5,1,5,0.00
2012-7-13,80,74,68,68,65,62,85,74,61,29.81,29.75,2,0,2,0.00
2012-7-14,85,75,67,74,68,63,88,79,67,29.79,29.69,3,1,3,0.00
2012-7-15,94,79,74,73,71,69,86,77,51,29.72,29.59,4,1,4,0.00
2012-7-16,98,82,70,74,69,65,88,68,40,29.61,29.44,6,2,6,0.00
2012-7-17,101,84,68,72,68,64,86,62,34,29.52,29.40,6,1,6,0.00
2012-7-18,99,79,73,76,70,67,88,76,48,29.52,29.43,6,1,6,0.00
2012-7-19,92,79,70,75,70,67,90,76,55,29.56,29.42,5,2,5,0.00
2012-7-20,79,73,67,74,69,64,91,89,84,29.57,29.45,2,0,2,0.00
2012-7-21,70,67,64,66,64,61,92,90,88,29.72,29.57,3,1,3,0.00
2012-7-22,82,71,66,72,67,64,93,86,70,29.76,29.68,3,1,3,0.00
2012-7-25,88,77,69,66,63,61,80,64,47,29.45,29.43,3,0,3,0.00
2012-7-26,98,77,67,73,67,62,88,73,45,29.43,29.25,9,1,9,0.00
2012-7-27,88,80,72,74,70,66,85,71,60,29.48,29.32,6,2,6,0.00
2012-7-28,91,78,69,73,67,61,87,71,45,29.55,29.46,6,1,6,0.00
2012-7-29,89,76,67,69,64,61,82,67,49,29.62,29.53,5,1,5,0.00
2012-7-30,69,67,65,62,61,60,84,81,78,29.62,29.60,0,0,0,0.00
2012-8-3,88,82,73,75,71,67,81,69,61,29.64,29.55,4,1,4,0.00
2012-8-4,91,79,69,76,70,65,89,74,55,29.71,29.63,10,2,10,0.00
2012-8-5,90,77,72,74,71,68,90,80,59,29.71,29.60,8,2,8,0.00
2012-8-6,90,78,69,74,70,64,91,78,53,29.66,29.56,4,1,4,0.00
2012-8-7,87,76,65,72,67,61,90,75,55,29.61,29.53,2,1,2,0.00
2012-8-8,93,78,68,72,66,63,89,70,41,29.59,29.50,4,1,4,0.00
2012-8-9,92,75,67,74,66,63,88,76,48,29.55,29.42,6,2,6,0.00
2012-8-10,84,75,68,72,68,64,91,81,67,29.42,29.28,8,2,8,0.00
2012-8-11,89,76,68,68,64,60,88,69,49,29.52,29.35,4,1,4,0.00
2012-8-12,86,72,61,64,60,56,85,69,47,29.60,29.52,6,1,6,0.00
2012-8-13,86,72,59,66,61,55,87,70,48,29.65,29.52,5,1,5,0.00
2012-8-14,87,74,68,72,66,63,89,78,55,29.53,29.40,8,1,8,0.00
2012-8-15,83,72,66,68,64,62,86,77,62,29.53,29.47,2,1,2,0.00
2012-8-16,88,74,61,66,62,58,89,70,46,29.59,29.47,4,1,4,0.00
2012-8-17,87,73,63,68,64,58,88,74,47,29.50,29.38,5,1,5,0.00
2012-8-18,83,72,63,65,60,56,88,69,45,29.53,29.45,7,1,7,0.00
2012-8-19,74,67,63,64,60,56,85,77,66,29.54,29.47,3,1,3,0.00
2012-8-20,78,68,62,68,62,58,89,83,64,29.55,29.42,4,1,4,0.00
2012-8-21,84,70,60,65,60,57,92,74,47,29.68,29.55,4,1,4,0.00
2012-8-22,85,70,59,66,60,55,89,73,46,29.74,29.66,5,1,5,0.00
2012-8-23,88,73,59,68,62,55,89,71,46,29.76,29.68,4,1,4,0.00
2012-8-24,85,73,62,68,63,58,87,73,50,29.76,29.70,5,1,5,0.00
2012-8-25,80,74,68,68,63,60,84,69,53,29.79,29.73,4,1,4,0.00
2012-8-26,80,72,68,72,67,62,91,87,75,29.79,29.71,4,1,4,0.00
2012-8-27,88,75,66,71,67,63,93,79,52,29.73,29.53,6,1,6,0.00
2012-8-28,89,77,66,70,65,60,85,68,43,29.56,29.49,6,1,6,0.00
2012-8-29,87,72,60,63,60,56,87,68,42,29.62,29.53,4,1,4,0.00
2012-8-30,88,72,59,65,60,55,87,69,43,29.71,29.61,4,1,4,0.00
2012-8-31,97,80,61,68,63,57,86,60,34,29.71,29.58,8,2,8,0.00
2012-9-1,92,81,73,74,69,64,78,67,52,29.68,29.57,6,1,6,0.00
2012-9-2,75,72,70,68,66,65,87,83,78,29.63,29.59,1,0,1,0.00
2012-9-8,64,62,61,59,58,57,86,85,85,29.45,29.40,2,1,2,0.00
2012-9-9,80,65,53,59,54,50,90,70,38,29.57,29.43,8,1,8,0.00
2012-9-10,75,62,53,53,50,46,84,65,40,29.75,29.57,6,1,6,0.00
2012-9-11,79,61,46,53,47,41,86,64,35,29.90,29.76,5,1,5,0.00
2012-9-12,84,63,47,58,51,42,85,67,40,29.94,29.85,5,1,5,0.00
2012-9-13,85,65,51,60,52,46,86,67,40,29.94,29.83,3,1,3,0.00
2012-9-14,84,62,51,61,52,46,85,73,44,29.84,29.68,4,1,4,0.00
2012-9-15,78,66,56,59,51,47,78,60,40,29.83,29.71,6,1,6,0.00
2012-9-16,76,61,50,55,50,44,83,68,48,29.77,29.64,4,0,4,0.00
2012-9-17,76,62,46,62,54,41,87,77,58,29.69,29.52,7,2,7,0.00
2012-9-18,70,67,61,68,64,56,94,91,85,29.52,29.18,6,2,6,0.00
2012-9-19,72,60,48,56,50,42,88,71,47,29.74,29.45,6,1,6,0.00
2012-9-20,76,58,44,57,48,40,87,73,52,29.76,29.61,5,1,5,0.00
2012-9-22,82,74,63,63,57,46,74,56,45,29.55,29.36,7,3,7,0.00
2012-9-23,74,58,49,49,44,40,75,60,41,29.74,29.55,6,1,6,0.00
2012-9-24,73,57,48,47,43,40,80,63,33,29.82,29.69,7,1,7,0.00
2012-9-25,65,48,42,50,41,37,83,77,58,29.76,29.70,4,1,4,0.00
2012-9-29,69,59,52,53,49,46,86,70,54,29.61,29.50,5,1,5,0.00
2012-9-30,73,56,48,54,48,44,88,77,47,29.50,29.37,4,1,4,0.00
2012-10-1,68,55,43,57,49,39,90,82,62,29.55,29.47,4,1,4,0.00
2012-10-2,65,61,58,62,58,54,93,90,87,29.53,29.46,1,0,1,0.00
2012-10-3,79,68,63,70,65,61,94,88,70,29.68,29.53,3,0,3,0.00
2012-10-4,86,70,59,67,62,52,94,78,50,29.73,29.67,4,1,4,0.00
2012-10-5,83,65,54,62,56,50,86,72,46,29.72,29.51,3,1,3,0.00
2012-10-6,71,60,46,60,50,40,86,71,47,29.65,29.41,10,2,10,0.00
2012-10-7,52,49,43,46,43,39,87,80,70,29.75,29.60,2,0,2,0.00
2012-10-8,47,43,38,43,39,35,89,87,85,29.87,29.75,2,0,2,0.00
2012-10-9,65,51,43,51,44,40,89,80,61,29.80,29.63,4,1,4,0.00
2012-10-10,69,53,41,52,44,37,90,74,47,29.67,29.44,7,1,7,0.00
2012-10-11,63,48,41,40,37,34,77,66,44,29.73,29.67,5,1,5,0.00
2012-10-12,65,47,36,44,37,30,84,68,48,29.99,29.71,8,1,8,0.00
2012-10-13,65,44,30,42,33,25,83,67,41,30.07,29.78,5,1,5,0.00
2012-10-14,73,59,46,55,48,39,79,69,53,29.78,29.45,5,2,5,0.00
2012-10-15,74,64,54,63,52,45,88,67,49,29.45,29.25,8,3,8,0.00
2012-10-16,56,50,43,46,41,35,77,70,53,29.50,29.42,3,1,3,0.00
2012-10-17,75,50,36,49,40,31,85,69,39,29.58,29.45,5,1,5,0.00
2012-10-18,72,55,42,58,48,37,89,78,61,29.48,29.36,9,2,9,0.00
2012-10-19,77,60,54,64,55,47,90,83,64,29.38,29.19,4,1,4,0.00
2012-10-20,71,54,45,47,42,38,85,65,40,29.51,29.25,6,2,6,0.00
2012-10-21,75,53,44,48,40,36,77,64,37,29.71,29.52,5,1,5,0.00
2012-10-22,67,46,38,48,38,33,85,74,50,29.76,29.67,1,0,1,0.00
2012-10-23,82,61,50,62,51,44,82,72,47,29.72,29.59,3,0,3,0.00
2012-10-24,88,65,54,62,54,50,87,70,39,29.71,29.63,5,1,5,0.00
2012-10-25,78,61,50,63,54,45,86,78,59,29.76,29.68,6,1,6,0.00
2012-10-26,69,63,57,60,57,52,85,80,72,29.74,29.63,3,1,3,0.00
2012-10-27,69,62,58,57,54,53,87,77,58,29.62,29.45,2,0,2,0.00
2012-10-28,59,56,51,53,51,47,89,81,73,29.45,29.24,4,1,4,0.00
2012-10-29,51,46,41,47,44,39,91,90,88,29.23,28.40,26,5,26,0.00
2012-10-30,42,40,38,39,37,36,90,88,86,29.03,28.34,16,2,16,0.00
2012-10-31,51,44,38,39,36,34,90,75,59,29.22,29.02,7,2,7,0.00
2012-11-1,51,46,42,37,35,33,70,64,57,29.32,29.22,9,3,9,0.00
2012-11-2,50,43,34,37,32,28,82,66,53,29.51,29.30,9,3,9,0.00
2012-11-3,48,44,41,33,31,28,66,61,56,29.64,29.51,11,4,11,0.00
2012-11-4,64,44,37,38,31,26,74,61,38,29.65,29.58,4,1,4,0.00
2012-11-5,64,42,29,36,28,21,72,58,34,29.74,29.62,5,1,5,0.00
2012-11-6,63,37,25,36,25,19,79,64,37,29.76,29.59,3,0,3,0.00
2012-11-7,44,38,35,29,27,25,72,63,53,29.59,29.48,2,0,2,0.00
2012-11-8,66,45,33,29,24,20,62,47,22,29.66,29.51,7,2,7,0.00
2012-11-9,52,41,36,33,30,27,74,65,47,29.79,29.66,6,1,6,0.00
2012-11-10,79,48,31,47,34,25,81,61,28,29.90,29.77,3,1,3,0.00
2012-11-11,76,52,33,49,37,27,81,61,37,30.01,29.89,3,1,3,0.00
2012-11-12,68,59,46,57,50,39,84,73,57,29.92,29.68,12,3,12,0.00
2012-11-13,64,44,32,44,33,23,86,67,36,30.06,29.80,5,2,5,0.00
2012-11-14,54,36,27,34,25,20,79,67,46,30.12,30.00,6,1,6,0.00
2012-11-15,49,35,27,37,28,22,83,75,62,30.00,29.87,2,0,2,0.00
2012-11-16,71,42,29,43,31,24,86,67,35,30.01,29.86,2,0,2,0.00
2012-11-17,54,34,25,39,25,20,80,71,53,30.17,30.01,1,0,1,0.00
2012-11-18,68,42,28,44,31,22,80,66,39,30.17,30.06,3,1,3,0.00
2012-11-19,64,45,32,44,35,26,79,69,47,30.06,29.80,3,0,3,0.00
2012-11-20,54,40,30,42,33,25,84,76,62,29.80,29.66,2,0,2,0.00
2012-11-21,73,41,27,45,30,23,86,68,33,29.80,29.70,4,0,4,0.00
2012-11-22,74,41,26,42,29,20,82,64,32,29.85,29.68,2,0,2,0.00
2012-11-23,70,44,28,43,30,22,81,61,35,29.68,29.33,11,2,11,0.00
2012-11-24,43,37,33,26,21,19,59,52,43,29.62,29.47,16,7,16,0.00
2012-11-25,56,36,25,25,20,16,69,52,29,29.63,29.47,8,2,8,0.00
2012-11-26,73,40,23,40,25,16,77,59,30,29.75,29.55,5,1,5,0.00
2012-11-27,43,39,36,37,33,28,84,79,67,29.82,29.73,3,0,3,0.00
2012-11-28,38,35,31,32,26,20,79,69,51,29.92,29.80,2,0,2,0.00
2012-11-29,64,37,25,31,22,18,76,57,25,30.00,29.87,5,1,5,0.00
2012-11-30,68,38,24,37,25,17,78,61,31,29.91,29.83,4,0,4,0.00
2012-12-1,62,40,27,43,30,21,80,70,47,30.00,29.88,3,0,3,0.00
2012-12-2,67,46,30,48,37,25,85,72,49,29.94,29.67,3,1,3,0.00
2012-12-3,76,56,45,58,47,40,85,75,54,29.82,29.71,2,0,2,0.00
2012-12-4,78,62,49,58,50,46,89,69,41,29.78,29.55,5,1,5,0.00
2012-12-5,69,53,32,51,36,22,67,55,30,29.89,29.55,12,4,12,0.00
2012-12-6,36,32,26,25,21,18,71,66,57,29.89,29.76,2,0,2,0.00
2012-12-7,51,40,34,42,34,25,84,78,70,29.74,29.52,2,0,2,0.00
2012-12-8,62,46,36,52,41,33,88,82,68,29.60,29.43,2,0,2,0.00
2012-12-9,49,48,46,46,45,43,91,90,87,29.74,29.50,2,0,2,0.00
2012-12-10,56,52,47,53,49,42,92,89,81,29.50,29.14,4,1,4,0.00
2012-12-11,53,43,34,40,33,25,83,69,48,29.78,29.29,14,4,14,0.00
2012-12-12,35,33,30,27,25,23,79,74,69,29.99,29.78,4,0,4,0.00
2012-12-13,62,35,22,38,25,18,84,68,38,30.04,29.89,2,0,2,0.00
2012-12-14,67,37,21,35,23,15,82,61,28,29.89,29.76,3,1,3,0.00
2012-12-15,59,40,27,38,28,21,78,63,41,29.85,29.65,4,1,4,0.00
2012-12-16,48,44,41,40,37,31,84,75,57,29.66,29.40,5,1,5,0.00
2012-12-17,50,44,36,46,41,33,91,87,82,29.41,29.12,3,1,3,0.00
2012-12-18,59,45,34,46,39,28,93,79,57,29.38,29.09,10,2,10,0.00
2012-12-19,59,43,31,41,34,26,82,70,51,29.73,29.37,10,2,10,0.00
2012-12-20,44,39,33,41,33,28,90,79,63,29.75,28.94,7,2,7,0.00
2012-12-21,44,38,35,42,28,22,90,67,54,29.15,28.92,14,6,14,0.00
2012-12-22,45,36,30,25,22,19,67,58,43,29.61,29.15,19,8,19,0.00
2012-12-23,62,36,23,30,20,15,72,55,28,29.61,29.44,9,1,9,0.00
2012-12-24,38,31,25,29,25,19,85,77,65,29.63,29.45,4,0,4,0.00
2012-12-25,47,36,32,39,31,28,88,82,70,29.79,29.47,2,0,2,0.00
2012-12-26,35,32,29,30,28,26,89,86,79,29.79,29.08,4,1,4,0.00
2012-12-27,38,34,32,30,28,26,89,79,72,29.59,29.07,18,6,18,0.00
2012-12-28,56,37,31,35,27,24,77,68,44,29.70,29.57,6,2,6,0.00
2012-12-29,46,35,31,38,29,25,88,77,68,29.57,29.15,13,2,13,0.00
2012-12-30,46,34,28,27,23,18,76,63,45,29.88,29.40,16,6,16,0.00
2012-12-31,37,32,22,26,22,15,75,65,59,29.87,29.55,4,1,4,0.00
2013-1-1,42,38,33,32,28,24,75,68,59,29.58,29.47,5,1,5,0.00